Decoded Metar for OIKQ (GHESHM I. in IRAN) (IATA:N/A) | Meteo·Mobile Aviation Weather
aviador You're here:

OIKQ Decoded Metar

GHESHM I. in IRAN
Report Time2018-09-22 02:00:00
UTC Time2018-09-22 02:57:06
Flight Rules ifr IFR
Wind070° at 08 kt
W.Decomp.*RWY 05: 7.5 kt HW 2.7 kt RCW
W.Rank070° ranks 7
Current wind is below 070° avg. (9.7)
Visibility4000 m
Phenomena:Haze
Clouds:N/A
Expected CloudBase > 2,000 ft AGL from Temp-Dew spread
CeilingNone
Temp31°C (ISA +16)
Dew Point26°C (75% RH)
Heat Index39.2°C
QNH1005 hPa
Density Alt2,589 ft
Elevation39 ft
Report Wrong Elevation
Raw Report
METAR OIKQ 220200Z 07008KT 4000 HZ NSC 31/26 Q1005=

Extra information for OIKQ:More info

Metar Taf Metar & Taf Last 4 Metars F.Rules Stats Wind Profile Meteogram Temp Stats Airport Information Weather charts Add Link Nearby VenuesMetar ALERT Operation Metar Decoded Social comments